Flight Track Log - Related Links

Times and Time Zones

All times are in EDT time to prevent confusion due to time zone crossing. See the KAP16 flight status page for this flight to view local times or setup timezone preferences in your user account.

Time Position Orientation Groundspeed Altitude Reporting Facility
EDT Latitude Longitude Course Direction KTS MPH feet Rate Location/Type
Fri 03:30:34 PM 38.7333 -90.3167 360° North 126 145 1,400  Level Gateway (St. Louis) TRACON
Fri 03:31:28 PM 38.7667 -90.3167 360° North 147 169 2,000 725 Climbing Gateway (St. Louis) TRACON
Fri 03:32:05 PM 38.7964 -90.3203 355° North 151 174 2,500 909 Climbing Kansas City Center
Fri 03:33:07 PM 38.8364 -90.3347 344° North 152 175 3,500 871 Climbing Kansas City Center
Fri 03:34:09 PM 38.8733 -90.3544 337° Northwest 149 171 4,300 823 Climbing Kansas City Center
Fri 03:35:11 PM 38.9122 -90.3678 345° North 146 168 5,200 968 Climbing Kansas City Center
Fri 03:36:13 PM 38.9572 -90.3889 340° North 144 166 6,300 871 Climbing Kansas City Center
Fri 03:37:15 PM 38.9944 -90.4006 346° North 140 161 7,000 581 Climbing Kansas City Center
Fri 03:38:17 PM 39.0328 -90.4286 330° Northwest 154 177 7,500 339 Climbing Kansas City Center
Fri 03:39:19 PM 39.0700 -90.4567 330° Northwest 155 178 7,700 242 Climbing Kansas City Center
Fri 03:40:21 PM 39.1044 -90.4872 325° Northwest 153 176 8,000 290 Climbing Kansas City Center
Fri 03:41:23 PM 39.1397 -90.5181 326° Northwest 153 176 8,300 290 Climbing Kansas City Center
Fri 03:42:25 PM 39.1817 -90.5542 326° Northwest 152 175 8,600 97 Climbing Kansas City Center
Fri 03:43:27 PM 39.2192 -90.5878 325° Northwest 158 182 8,500 -48 Descending Kansas City Center
Fri 03:44:29 PM 39.2597 -90.6225 326° Northwest 170 196 8,500  Level Kansas City Center
Fri 03:45:31 PM 39.2997 -90.6567 327° Northwest 174 200 8,500  Level Kansas City Center
Fri 03:46:33 PM 39.3389 -90.6886 328° Northwest 169 194 8,500  Level Kansas City Center
Fri 03:47:35 PM 39.3767 -90.7192 328° Northwest 163 188 8,500  Level Kansas City Center
Fri 03:48:37 PM 39.4228 -90.7539 330° Northwest 161 185 8,500  Level Kansas City Center
Fri 03:49:39 PM 39.4589 -90.7817 329° Northwest 155 178 8,500  Level Kansas City Center
Fri 03:50:41 PM 39.4953 -90.8094 330° Northwest 153 176 8,500 -145 Level Kansas City Center
Fri 03:51:43 PM 39.5328 -90.8403 328° Northwest 157 181 8,200 -339 Descending Kansas City Center
Fri 03:52:45 PM 39.5700 -90.8717 327° Northwest 160 184 7,800 -480 Descending Kansas City Center
Fri 03:53:48 PM 39.6147 -90.9075 328° Northwest 158 182 7,200 -480 Descending Kansas City Center
Fri 03:54:50 PM 39.6531 -90.9356 331° Northwest 159 183 6,800 -387 Descending Kansas City Center
Fri 03:55:52 PM 39.6919 -90.9633 331° Northwest 160 184 6,400 -435 Descending Kansas City Center
Fri 03:56:54 PM 39.7353 -90.9847 339° North 164 189 5,900 -484 Descending Kansas City Center
Fri 03:57:56 PM 39.7761 -91.0186 327° Northwest 161 185 5,400 -484 Descending Kansas City Center

Login

Don't have an account? Register now (free) for customized features, flight alerts, and more!